createdAt,value
2018-12-21T00:00:29.408Z,0.00
2018-12-21T00:01:29.376Z,0.00
2018-12-21T00:02:29.343Z,0.00
2018-12-21T00:03:29.307Z,0.00
2018-12-21T00:04:29.274Z,0.00
2018-12-21T00:05:29.242Z,0.00
2018-12-21T00:06:29.208Z,0.00
2018-12-21T00:07:29.174Z,0.00
2018-12-21T00:08:29.144Z,0.00
2018-12-21T00:09:29.108Z,0.00
2018-12-21T00:10:29.074Z,0.00
2018-12-21T00:11:29.041Z,0.00
2018-12-21T00:12:29.009Z,0.00
2018-12-21T00:13:28.977Z,0.00
2018-12-21T00:14:28.942Z,0.00
2018-12-21T00:15:28.907Z,0.00
2018-12-21T00:16:28.876Z,0.00
2018-12-21T00:17:34.518Z,0.00
2018-12-21T00:18:28.810Z,0.00
2018-12-21T00:19:28.776Z,0.00
2018-12-21T00:20:28.743Z,0.00
2018-12-21T00:21:28.712Z,0.00
2018-12-21T00:22:28.674Z,0.00
2018-12-21T00:23:28.643Z,0.00
2018-12-21T00:24:28.612Z,0.00
2018-12-21T00:25:28.576Z,0.00
2018-12-21T00:26:28.543Z,0.00
2018-12-21T00:27:28.510Z,0.00
2018-12-21T00:28:28.479Z,0.00
2018-12-21T00:29:28.445Z,0.00
2018-12-21T00:30:28.410Z,0.00
2018-12-21T00:31:28.378Z,0.00
2018-12-21T00:32:28.344Z,0.00
2018-12-21T00:33:28.313Z,0.00
2018-12-21T00:34:28.277Z,0.00
2018-12-21T00:35:28.246Z,0.00
2018-12-21T00:36:28.211Z,0.00
2018-12-21T00:37:28.179Z,0.00
2018-12-21T00:38:28.144Z,0.00
2018-12-21T00:39:28.112Z,0.00
2018-12-21T00:40:28.080Z,0.00
2018-12-21T00:41:28.045Z,0.00
2018-12-21T00:42:28.018Z,0.00
2018-12-21T00:43:27.978Z,0.00
2018-12-21T00:44:27.945Z,0.00
2018-12-21T00:45:27.912Z,0.00
2018-12-21T00:46:27.878Z,0.00
2018-12-21T00:47:27.845Z,0.00
2018-12-21T00:48:27.813Z,0.00
2018-12-21T00:49:27.779Z,0.00
2018-12-21T00:50:27.745Z,0.00
2018-12-21T00:51:30.376Z,0.00
2018-12-21T00:52:27.680Z,0.00
2018-12-21T00:53:27.649Z,0.00
2018-12-21T00:54:27.613Z,0.00
2018-12-21T00:55:27.580Z,0.00
2018-12-21T00:56:27.546Z,0.00
2018-12-21T00:57:27.514Z,0.00
2018-12-21T00:58:27.480Z,0.00
2018-12-21T00:59:27.447Z,0.00
2018-12-21T01:00:27.413Z,0.00
2018-12-21T01:01:27.381Z,0.00
2018-12-21T01:02:27.346Z,0.00
2018-12-21T01:03:27.314Z,0.00
2018-12-21T01:04:27.281Z,0.00
2018-12-21T01:05:27.319Z,0.00
2018-12-21T01:06:27.214Z,0.00
2018-12-21T01:07:27.181Z,0.00
2018-12-21T01:08:27.149Z,0.00
2018-12-21T01:09:27.114Z,0.00
2018-12-21T01:10:27.083Z,0.00
2018-12-21T01:11:27.048Z,0.00
2018-12-21T01:12:27.017Z,0.00
2018-12-21T01:13:26.983Z,0.00
2018-12-21T01:14:26.949Z,0.00
2018-12-21T01:15:26.916Z,0.00
2018-12-21T01:16:26.882Z,0.00
2018-12-21T01:17:26.850Z,0.00
2018-12-21T01:18:26.816Z,0.00
2018-12-21T01:19:26.782Z,0.00
2018-12-21T01:20:26.750Z,0.00
2018-12-21T01:21:26.717Z,0.00
2018-12-21T01:22:26.792Z,0.00
2018-12-21T01:23:26.650Z,0.00
2018-12-21T01:24:26.619Z,0.00
2018-12-21T01:25:26.584Z,0.00
2018-12-21T01:26:26.554Z,0.00
2018-12-21T01:27:26.518Z,0.00
2018-12-21T01:28:26.485Z,0.00
2018-12-21T01:29:26.454Z,0.00
2018-12-21T01:30:26.419Z,0.00
2018-12-21T01:31:26.387Z,0.00
2018-12-21T01:32:26.353Z,0.00
2018-12-21T01:33:26.321Z,0.00
2018-12-21T01:34:26.287Z,0.00
2018-12-21T01:35:26.254Z,0.00
2018-12-21T01:36:26.222Z,0.00
2018-12-21T01:37:26.190Z,0.00
2018-12-21T01:38:26.155Z,0.00
2018-12-21T01:39:26.124Z,0.00
2018-12-21T01:40:26.089Z,0.00
2018-12-21T01:41:26.059Z,0.00
2018-12-21T01:42:26.022Z,0.00
2018-12-21T01:43:25.991Z,0.00
2018-12-21T01:44:25.959Z,0.00
2018-12-21T01:45:25.925Z,0.00
2018-12-21T01:46:25.891Z,0.00
2018-12-21T01:47:25.860Z,0.00
2018-12-21T01:48:25.826Z,0.00
2018-12-21T01:49:25.796Z,0.00
2018-12-21T01:50:25.760Z,0.00
2018-12-21T01:51:25.726Z,0.00
2018-12-21T01:52:25.698Z,0.00
2018-12-21T01:53:25.661Z,0.00
2018-12-21T01:54:25.630Z,0.00
2018-12-21T01:55:25.594Z,0.00
2018-12-21T01:56:25.561Z,0.00
2018-12-21T01:57:25.529Z,0.00
2018-12-21T01:58:25.497Z,0.00
2018-12-21T01:59:25.575Z,0.00
2018-12-21T02:00:25.431Z,0.00
2018-12-21T02:01:25.401Z,0.00
2018-12-21T02:02:25.365Z,0.00
2018-12-21T02:03:25.331Z,0.00
2018-12-21T02:04:25.300Z,0.00
2018-12-21T02:05:25.266Z,0.00
2018-12-21T02:06:25.233Z,0.00
2018-12-21T02:07:25.199Z,0.00
2018-12-21T02:08:25.178Z,0.00
2018-12-21T02:09:25.135Z,0.00
2018-12-21T02:10:25.101Z,0.00
2018-12-21T02:11:25.069Z,0.00
2018-12-21T02:12:25.039Z,0.00
2018-12-21T02:13:25.003Z,0.00
2018-12-21T02:14:24.971Z,0.00
2018-12-21T02:15:24.937Z,0.00
2018-12-21T02:16:24.903Z,0.00
2018-12-21T02:17:24.870Z,0.00
2018-12-21T02:18:24.838Z,0.00
2018-12-21T02:19:24.809Z,0.00
2018-12-21T02:20:24.772Z,0.00
2018-12-21T02:21:24.741Z,0.00
2018-12-21T02:22:24.708Z,0.00
2018-12-21T02:23:24.672Z,0.00
2018-12-21T02:24:24.640Z,0.00
2018-12-21T02:25:24.608Z,0.00
2018-12-21T02:26:24.575Z,0.00
2018-12-21T02:27:24.540Z,0.00
2018-12-21T02:28:24.514Z,0.00
2018-12-21T02:29:24.476Z,0.00
2018-12-21T02:30:24.444Z,0.00
2018-12-21T02:31:24.410Z,0.00
2018-12-21T02:32:24.376Z,0.00
2018-12-21T02:33:24.345Z,0.00
2018-12-21T02:34:24.310Z,0.00
2018-12-21T02:35:24.277Z,0.00
2018-12-21T02:36:24.245Z,0.00
2018-12-21T02:37:24.212Z,0.00
2018-12-21T02:38:24.176Z,0.00
2018-12-21T02:39:24.146Z,0.00
2018-12-21T02:40:24.113Z,0.00
2018-12-21T02:41:24.080Z,0.00
2018-12-21T02:42:24.046Z,0.00
2018-12-21T02:43:24.014Z,0.00
2018-12-21T02:44:23.980Z,0.00
2018-12-21T02:45:23.949Z,0.00
2018-12-21T02:46:23.912Z,0.00
2018-12-21T02:47:23.881Z,0.00
2018-12-21T02:48:23.847Z,0.00
2018-12-21T02:49:23.815Z,0.00
2018-12-21T02:50:23.781Z,0.00
2018-12-21T02:51:23.752Z,0.00
2018-12-21T02:52:23.716Z,0.00
2018-12-21T02:53:23.683Z,0.00
2018-12-21T02:54:23.652Z,0.00
2018-12-21T02:55:23.619Z,0.00
2018-12-21T02:56:23.587Z,0.00
2018-12-21T02:57:23.550Z,0.00
2018-12-21T02:58:23.515Z,0.00
2018-12-21T02:59:23.489Z,0.00
2018-12-21T03:00:23.450Z,0.00
2018-12-21T03:01:23.416Z,0.00
2018-12-21T03:02:23.385Z,0.00
2018-12-21T03:03:23.351Z,0.00
2018-12-21T03:04:23.319Z,0.00
2018-12-21T03:05:23.285Z,0.00
2018-12-21T03:06:23.252Z,0.00
2018-12-21T03:07:23.219Z,0.00
2018-12-21T03:08:23.192Z,0.00
2018-12-21T03:09:23.156Z,0.00
2018-12-21T03:10:23.119Z,0.00
2018-12-21T03:11:23.087Z,0.00
2018-12-21T03:12:23.055Z,0.00
2018-12-21T03:13:23.021Z,0.00
2018-12-21T03:14:22.987Z,0.00
2018-12-21T03:15:22.955Z,0.00
2018-12-21T03:16:22.926Z,0.00
2018-12-21T03:17:22.889Z,0.00
2018-12-21T03:18:22.876Z,0.00
2018-12-21T03:19:22.822Z,0.00
2018-12-21T03:20:22.790Z,0.00
2018-12-21T03:21:22.755Z,0.00
2018-12-21T03:22:22.722Z,0.00
2018-12-21T03:23:22.689Z,0.00
2018-12-21T03:24:22.656Z,0.00
2018-12-21T03:25:22.633Z,0.00
2018-12-21T03:26:22.590Z,0.00
2018-12-21T03:27:22.557Z,0.00
2018-12-21T03:28:22.524Z,0.00
2018-12-21T03:29:22.490Z,0.00
2018-12-21T03:30:22.458Z,0.00
2018-12-21T03:31:22.426Z,0.00
2018-12-21T03:32:22.394Z,0.00
2018-12-21T03:33:22.364Z,0.00
2018-12-21T03:34:22.333Z,0.00
2018-12-21T03:35:22.293Z,0.00
2018-12-21T03:36:22.262Z,0.00
2018-12-21T03:37:22.341Z,0.00
2018-12-21T03:38:22.197Z,0.00
2018-12-21T03:39:22.161Z,0.00
2018-12-21T03:40:22.127Z,0.00
2018-12-21T03:41:22.097Z,0.00
2018-12-21T03:42:22.062Z,0.00
2018-12-21T03:43:22.028Z,0.00
2018-12-21T03:44:21.999Z,0.00
2018-12-21T03:45:21.963Z,0.00
2018-12-21T03:46:21.928Z,0.00
2018-12-21T03:47:21.895Z,0.00
2018-12-21T03:48:21.863Z,0.00
2018-12-21T03:49:21.828Z,0.00
2018-12-21T03:50:21.796Z,0.00
2018-12-21T03:51:21.763Z,0.00
2018-12-21T03:52:24.593Z,0.00
2018-12-21T03:53:21.698Z,0.00
2018-12-21T03:54:21.664Z,0.00
2018-12-21T03:55:21.631Z,0.00
2018-12-21T03:56:21.600Z,0.00
2018-12-21T03:57:21.570Z,0.00
2018-12-21T03:58:21.533Z,0.00
2018-12-21T03:59:21.499Z,0.00
2018-12-21T04:00:21.468Z,0.00
2018-12-21T04:01:21.433Z,0.00
2018-12-21T04:02:21.404Z,0.00
2018-12-21T04:03:21.366Z,0.00
2018-12-21T04:04:21.333Z,0.00
2018-12-21T04:05:21.300Z,0.00
2018-12-21T04:06:21.265Z,0.00
2018-12-21T04:07:21.233Z,0.00
2018-12-21T04:08:21.204Z,0.00
2018-12-21T04:09:21.167Z,0.00
2018-12-21T04:10:21.133Z,0.00
2018-12-21T04:11:21.114Z,0.00
2018-12-21T04:12:21.067Z,0.00
2018-12-21T04:13:21.036Z,0.00
2018-12-21T04:14:21.000Z,0.00
2018-12-21T04:15:20.968Z,0.00
2018-12-21T04:16:20.935Z,0.00
2018-12-21T04:17:20.903Z,0.00
2018-12-21T04:18:20.870Z,0.00
2018-12-21T04:19:20.836Z,0.00
2018-12-21T04:20:20.802Z,0.00
2018-12-21T04:21:20.769Z,0.00
2018-12-21T04:22:20.735Z,0.00
2018-12-21T04:23:20.702Z,0.00
2018-12-21T04:24:20.671Z,0.00
2018-12-21T04:25:20.638Z,0.00
2018-12-21T04:26:20.606Z,0.00
2018-12-21T04:27:20.570Z,0.00
2018-12-21T04:28:20.538Z,0.00
2018-12-21T04:29:20.506Z,0.00
2018-12-21T04:30:20.472Z,0.00
2018-12-21T04:31:20.442Z,0.00
2018-12-21T04:32:20.405Z,0.00
2018-12-21T04:33:20.373Z,0.00
2018-12-21T04:34:20.339Z,0.00
2018-12-21T04:35:20.306Z,0.00
2018-12-21T04:36:20.272Z,0.00
2018-12-21T04:37:20.242Z,0.00
2018-12-21T04:38:20.207Z,0.00
2018-12-21T04:39:20.175Z,0.00
2018-12-21T04:40:20.140Z,0.00
2018-12-21T04:41:20.111Z,0.00
2018-12-21T04:42:20.074Z,0.00
2018-12-21T04:43:20.047Z,0.00
2018-12-21T04:44:20.010Z,0.00
2018-12-21T04:45:19.978Z,0.00
2018-12-21T04:46:19.945Z,0.00
2018-12-21T04:47:19.909Z,0.00
2018-12-21T04:48:19.876Z,0.00
2018-12-21T04:49:19.842Z,0.00
2018-12-21T04:50:19.807Z,0.00
2018-12-21T04:51:19.775Z,0.00
2018-12-21T04:52:19.744Z,0.00
2018-12-21T04:53:19.711Z,0.00
2018-12-21T04:54:19.676Z,0.00
2018-12-21T04:55:19.643Z,0.00
2018-12-21T04:56:19.611Z,0.00
2018-12-21T04:57:19.578Z,0.00
2018-12-21T04:58:19.551Z,0.00
2018-12-21T04:59:19.515Z,0.00
2018-12-21T05:00:19.478Z,0.00
2018-12-21T05:01:19.444Z,0.00
2018-12-21T05:02:19.410Z,0.00
2018-12-21T05:03:19.378Z,0.00
2018-12-21T05:04:20.270Z,0.00
2018-12-21T05:05:19.311Z,0.00
2018-12-21T05:06:19.283Z,0.00
2018-12-21T05:07:19.245Z,0.00
2018-12-21T05:08:19.212Z,0.00
2018-12-21T05:09:19.179Z,0.00
2018-12-21T05:10:19.146Z,0.00
2018-12-21T05:11:19.117Z,0.00
2018-12-21T05:12:19.080Z,0.00
2018-12-21T05:13:19.046Z,0.00
2018-12-21T05:14:19.012Z,0.00
2018-12-21T05:15:18.982Z,0.00
2018-12-21T05:16:18.948Z,0.00
2018-12-21T05:17:18.917Z,0.00
2018-12-21T05:18:18.879Z,0.00
2018-12-21T05:19:18.847Z,0.00
2018-12-21T05:20:18.815Z,0.00
2018-12-21T05:21:18.783Z,0.00
2018-12-21T05:22:18.756Z,0.00
2018-12-21T05:23:18.715Z,0.00
2018-12-21T05:24:18.682Z,0.00
2018-12-21T05:25:18.649Z,0.00
2018-12-21T05:26:18.615Z,0.00
2018-12-21T05:27:18.583Z,0.00
2018-12-21T05:28:18.549Z,0.00
2018-12-21T05:29:18.517Z,0.00
2018-12-21T05:30:18.484Z,0.00
2018-12-21T05:31:18.449Z,0.00
2018-12-21T05:32:18.418Z,0.00
2018-12-21T05:33:18.385Z,0.00
2018-12-21T05:34:18.352Z,0.00
2018-12-21T05:35:18.318Z,0.00
2018-12-21T05:36:18.286Z,0.00
2018-12-21T05:37:18.252Z,0.00
2018-12-21T05:38:18.218Z,0.00
2018-12-21T05:39:18.187Z,0.00
2018-12-21T05:40:18.152Z,0.00
2018-12-21T05:41:18.121Z,0.00
2018-12-21T05:42:18.094Z,0.00
2018-12-21T05:43:18.053Z,0.00
2018-12-21T05:44:18.020Z,0.00
2018-12-21T05:45:17.987Z,0.00
2018-12-21T05:46:17.953Z,0.00
2018-12-21T05:47:17.920Z,0.00
2018-12-21T05:48:17.897Z,0.00
2018-12-21T05:49:17.855Z,0.00
2018-12-21T05:50:17.821Z,0.00
2018-12-21T05:51:17.787Z,0.00
2018-12-21T05:52:17.754Z,0.00
2018-12-21T05:53:17.723Z,0.00
2018-12-21T05:54:17.688Z,0.00
2018-12-21T05:55:17.654Z,0.00
2018-12-21T05:56:17.621Z,0.00
2018-12-21T05:57:17.588Z,0.00
2018-12-21T05:58:17.555Z,0.00
2018-12-21T05:59:17.524Z,0.00
2018-12-21T06:00:17.488Z,0.00
2018-12-21T06:01:17.457Z,0.00
2018-12-21T06:02:17.423Z,0.00
2018-12-21T06:03:17.389Z,0.00
2018-12-21T06:04:17.357Z,0.00
2018-12-21T06:05:17.323Z,0.00
2018-12-21T06:06:17.289Z,0.00
2018-12-21T06:07:17.255Z,0.00
2018-12-21T06:08:17.223Z,0.00
2018-12-21T06:09:17.189Z,0.00
2018-12-21T06:10:17.159Z,0.00
2018-12-21T06:11:17.123Z,0.00
2018-12-21T06:12:17.089Z,0.00
2018-12-21T06:13:17.056Z,0.00
2018-12-21T06:14:17.023Z,0.00
2018-12-21T06:15:16.990Z,0.00
2018-12-21T06:16:16.957Z,0.00
2018-12-21T06:17:16.924Z,0.00
2018-12-21T06:18:16.889Z,0.00
2018-12-21T06:19:16.856Z,0.00
2018-12-21T06:20:16.824Z,0.00
2018-12-21T06:21:16.791Z,0.00
2018-12-21T06:22:16.757Z,0.00
2018-12-21T06:23:16.723Z,0.00
2018-12-21T06:24:16.692Z,0.00
2018-12-21T06:25:16.659Z,0.00
2018-12-21T06:26:16.623Z,0.00
2018-12-21T06:27:16.592Z,0.00
2018-12-21T06:28:16.558Z,0.00
2018-12-21T06:29:16.524Z,0.00
2018-12-21T06:30:16.491Z,0.00
2018-12-21T06:31:16.457Z,0.00
2018-12-21T06:32:16.425Z,0.00
2018-12-21T06:33:16.392Z,0.00
2018-12-21T06:34:16.358Z,0.00
2018-12-21T06:35:16.326Z,0.00
2018-12-21T06:36:16.292Z,0.00
2018-12-21T06:37:16.262Z,0.00
2018-12-21T06:38:16.231Z,0.00
2018-12-21T06:39:16.195Z,0.00
2018-12-21T06:40:16.163Z,0.00
2018-12-21T06:41:16.129Z,0.00
2018-12-21T06:42:16.092Z,0.00
2018-12-21T06:43:16.061Z,0.00
2018-12-21T06:44:16.027Z,0.00
2018-12-21T06:45:15.994Z,0.00
2018-12-21T06:46:15.961Z,0.00
2018-12-21T06:47:15.927Z,0.00
2018-12-21T06:48:15.893Z,0.00
2018-12-21T06:49:15.911Z,0.00
2018-12-21T06:50:15.827Z,0.00
2018-12-21T06:51:15.798Z,0.00
2018-12-21T06:52:15.762Z,4.00
2018-12-21T06:53:18.095Z,4.00
2018-12-21T06:54:15.695Z,4.00
2018-12-21T06:55:15.662Z,4.00
2018-12-21T06:56:15.629Z,0.00
2018-12-21T06:57:15.597Z,4.00
2018-12-21T06:58:15.562Z,4.00
2018-12-21T06:59:15.530Z,8.00
2018-12-21T07:00:15.506Z,4.00
2018-12-21T07:01:15.465Z,8.00
2018-12-21T07:02:15.429Z,8.00
2018-12-21T07:03:17.194Z,8.00
2018-12-21T07:04:15.365Z,8.00
2018-12-21T07:05:15.331Z,12.00
2018-12-21T07:06:15.298Z,12.00
2018-12-21T07:07:15.263Z,16.00
2018-12-21T07:08:15.232Z,24.00
2018-12-21T07:09:15.198Z,28.00
2018-12-21T07:10:15.165Z,32.00
2018-12-21T07:11:15.132Z,40.00
2018-12-21T07:12:15.101Z,44.00
2018-12-21T07:13:15.067Z,52.00
2018-12-21T07:14:15.032Z,60.00
2018-12-21T07:15:15.003Z,72.00
2018-12-21T07:16:14.966Z,80.00
2018-12-21T07:17:14.936Z,88.00
2018-12-21T07:18:14.901Z,100.00
2018-12-21T07:19:14.866Z,108.00
2018-12-21T07:20:14.834Z,120.00
2018-12-21T07:21:14.801Z,136.00
2018-12-21T07:22:14.768Z,144.00
2018-12-21T07:23:14.735Z,160.00
2018-12-21T07:24:14.701Z,176.00
2018-12-21T07:25:14.670Z,196.00
2018-12-21T07:26:14.633Z,212.00
2018-12-21T07:27:14.604Z,236.00
2018-12-21T07:28:14.567Z,256.00
2018-12-21T07:29:14.534Z,276.00
2018-12-21T07:30:14.650Z,288.00
2018-12-21T07:31:14.469Z,300.00
2018-12-21T07:32:14.436Z,312.00
2018-12-21T07:33:14.402Z,336.00
2018-12-21T07:34:14.418Z,364.00
2018-12-21T07:35:14.336Z,404.00
2018-12-21T07:36:14.302Z,432.00
2018-12-21T07:37:14.270Z,452.00
2018-12-21T07:38:14.235Z,468.00
2018-12-21T07:39:14.202Z,492.00
2018-12-21T07:40:14.189Z,528.00
2018-12-21T07:41:14.136Z,568.00
2018-12-21T07:42:14.102Z,608.00
2018-12-21T07:43:14.081Z,640.00
2018-12-21T07:44:14.036Z,664.00
2018-12-21T07:45:14.003Z,700.00
2018-12-21T07:46:13.971Z,736.00
2018-12-21T07:47:13.935Z,772.00
2018-12-21T07:48:13.904Z,804.00
2018-12-21T07:49:13.871Z,828.00
2018-12-21T07:50:13.837Z,824.00
2018-12-21T07:51:13.804Z,828.00
2018-12-21T07:52:13.769Z,856.00
2018-12-21T07:53:13.735Z,896.00
2018-12-21T07:54:13.703Z,920.00
2018-12-21T07:55:13.669Z,936.00
2018-12-21T07:56:13.636Z,932.00
2018-12-21T07:57:13.606Z,920.00
2018-12-21T07:58:13.570Z,888.00
2018-12-21T07:59:13.535Z,856.00
2018-12-21T08:00:13.502Z,844.00
2018-12-21T08:01:13.469Z,856.00
2018-12-21T08:02:13.439Z,892.00
2018-12-21T08:03:13.402Z,936.00
2018-12-21T08:04:13.369Z,992.00
2018-12-21T08:05:13.335Z,1056.00
2018-12-21T08:06:13.303Z,1132.00
2018-12-21T08:07:13.270Z,1216.00
2018-12-21T08:08:13.236Z,1364.00
2018-12-21T08:09:13.203Z,1548.00
2018-12-21T08:10:13.168Z,1736.00
2018-12-21T08:11:13.435Z,1884.00
2018-12-21T08:12:13.102Z,2000.00
2018-12-21T08:13:13.069Z,2096.00
2018-12-21T08:14:13.034Z,2172.00
2018-12-21T08:15:13.003Z,2236.00
2018-12-21T08:16:12.969Z,2296.00
2018-12-21T08:17:12.936Z,2360.00
2018-12-21T08:18:12.902Z,2432.00
2018-12-21T08:19:12.869Z,2520.00
2018-12-21T08:20:12.837Z,2608.00
2018-12-21T08:21:12.802Z,2708.00
2018-12-21T08:22:12.769Z,2800.00
2018-12-21T08:23:12.736Z,2884.00
2018-12-21T08:24:12.702Z,2948.00
2018-12-21T08:25:12.669Z,2984.00
2018-12-21T08:26:12.634Z,2936.00
2018-12-21T08:27:12.601Z,2824.00
2018-12-21T08:28:12.569Z,2684.00
2018-12-21T08:29:12.536Z,2628.00
2018-12-21T08:30:12.501Z,2696.00
2018-12-21T08:31:12.469Z,2848.00
2018-12-21T08:32:12.435Z,2996.00
2018-12-21T08:33:12.402Z,3052.00
2018-12-21T08:34:12.369Z,3016.00
2018-12-21T08:35:12.336Z,2956.00
2018-12-21T08:36:12.303Z,2928.00
2018-12-21T08:37:12.270Z,2932.00
2018-12-21T08:38:12.236Z,2960.00
2018-12-21T08:39:12.202Z,3020.00
2018-12-21T08:40:12.169Z,3092.00
2018-12-21T08:41:12.135Z,3156.00
2018-12-21T08:42:12.103Z,3184.00
2018-12-21T08:43:12.070Z,3176.00
2018-12-21T08:44:12.035Z,3140.00
2018-12-21T08:45:12.005Z,3108.00
2018-12-21T08:46:11.969Z,3100.00
2018-12-21T08:47:11.937Z,3132.00
2018-12-21T08:48:11.904Z,3188.00
2018-12-21T08:49:11.870Z,3268.00
2018-12-21T08:50:11.837Z,3340.00
2018-12-21T08:51:11.810Z,3412.00
2018-12-21T08:52:11.771Z,3448.00
2018-12-21T08:53:11.739Z,3456.00
2018-12-21T08:54:11.704Z,3444.00
2018-12-21T08:55:11.971Z,3420.00
2018-12-21T08:56:11.639Z,3384.00
2018-12-21T08:57:11.605Z,3328.00
2018-12-21T08:58:11.573Z,3244.00
2018-12-21T08:59:11.538Z,3160.00
2018-12-21T09:00:11.505Z,3080.00
2018-12-21T09:01:11.472Z,2988.00
2018-12-21T09:02:11.440Z,2896.00
2018-12-21T09:03:11.406Z,2812.00
2018-12-21T09:04:11.372Z,2736.00
2018-12-21T09:05:11.341Z,2676.00
2018-12-21T09:06:18.367Z,2692.00
2018-12-21T09:07:11.273Z,2812.00
2018-12-21T09:08:11.243Z,3048.00
2018-12-21T09:09:11.209Z,3300.00
2018-12-21T09:10:11.176Z,3520.00
2018-12-21T09:11:11.141Z,3652.00
2018-12-21T09:12:11.108Z,3720.00
2018-12-21T09:13:11.076Z,3780.00
2018-12-21T09:14:11.041Z,3808.00
2018-12-21T09:15:11.009Z,3812.00
2018-12-21T09:16:10.980Z,3876.00
2018-12-21T09:17:10.944Z,3988.00
2018-12-21T09:18:10.912Z,4144.00
2018-12-21T09:19:10.877Z,4356.00
2018-12-21T09:20:10.845Z,4600.00
2018-12-21T09:21:10.811Z,4840.00
2018-12-21T09:22:10.778Z,5020.00
2018-12-21T09:23:10.746Z,5124.00
2018-12-21T09:24:10.714Z,5188.00
2018-12-21T09:25:10.681Z,5228.00
2018-12-21T09:26:10.645Z,5264.00
2018-12-21T09:27:10.611Z,5316.00
2018-12-21T09:28:10.581Z,5384.00
2018-12-21T09:29:10.548Z,5476.00
2018-12-21T09:30:10.513Z,5628.00
2018-12-21T09:31:10.481Z,5804.00
2018-12-21T09:32:10.451Z,6008.00
2018-12-21T09:33:10.415Z,6204.00
2018-12-21T09:34:10.382Z,6344.00
2018-12-21T09:35:10.351Z,6380.00
2018-12-21T09:36:10.316Z,6356.00
2018-12-21T09:37:10.284Z,6360.00
2018-12-21T09:38:10.278Z,6384.00
2018-12-21T09:39:10.220Z,6400.00
2018-12-21T09:40:10.186Z,6420.00
2018-12-21T09:41:10.153Z,6476.00
2018-12-21T09:42:10.119Z,6608.00
2018-12-21T09:43:10.087Z,6848.00
2018-12-21T09:44:10.055Z,7196.00
2018-12-21T09:45:10.022Z,7560.00
2018-12-21T09:46:09.987Z,7808.00
2018-12-21T09:47:09.954Z,7864.00
2018-12-21T09:48:09.924Z,7748.00
2018-12-21T09:49:09.893Z,7584.00
2018-12-21T09:50:09.857Z,7520.00
2018-12-21T09:51:09.824Z,7604.00
2018-12-21T09:52:09.893Z,7856.00
2018-12-21T09:53:09.759Z,8168.00
2018-12-21T09:54:10.314Z,8496.00
2018-12-21T09:55:09.693Z,8752.00
2018-12-21T09:56:09.661Z,8876.00
2018-12-21T09:57:09.629Z,8896.00
2018-12-21T09:58:09.597Z,8880.00
2018-12-21T09:59:09.563Z,8904.00
2018-12-21T10:00:09.532Z,8908.00
2018-12-21T10:01:09.498Z,8784.00
2018-12-21T10:02:09.465Z,8544.00
2018-12-21T10:03:09.433Z,8228.00
2018-12-21T10:04:09.401Z,7888.00
2018-12-21T10:05:09.419Z,7552.00
2018-12-21T10:06:09.336Z,7244.00
2018-12-21T10:07:09.303Z,7032.00
2018-12-21T10:08:09.272Z,6900.00
2018-12-21T10:09:09.240Z,6860.00
2018-12-21T10:10:09.206Z,6868.00
2018-12-21T10:11:09.174Z,6852.00
2018-12-21T10:12:09.142Z,6880.00
2018-12-21T10:13:09.110Z,6916.00
2018-12-21T10:14:09.076Z,6964.00
2018-12-21T10:15:09.044Z,7008.00
2018-12-21T10:16:09.013Z,7000.00
2018-12-21T10:17:08.984Z,6940.00
2018-12-21T10:18:08.948Z,6964.00
2018-12-21T10:19:08.914Z,7112.00
2018-12-21T10:20:08.886Z,7176.00
2018-12-21T10:21:08.851Z,7204.00
2018-12-21T10:22:08.818Z,7228.00
2018-12-21T10:23:08.784Z,7204.00
2018-12-21T10:24:08.755Z,7184.00
2018-12-21T10:25:08.720Z,7148.00
2018-12-21T10:26:08.688Z,7076.00
2018-12-21T10:27:08.655Z,7012.00
2018-12-21T10:28:08.623Z,6920.00
2018-12-21T10:29:08.593Z,6752.00
2018-12-21T10:30:08.558Z,6608.00
2018-12-21T10:31:08.528Z,6532.00
2018-12-21T10:32:08.498Z,6532.00
2018-12-21T10:33:08.465Z,6552.00
2018-12-21T10:34:08.428Z,6596.00
2018-12-21T10:35:08.405Z,6672.00
2018-12-21T10:36:08.365Z,6712.00
2018-12-21T10:37:08.333Z,6680.00
2018-12-21T10:38:08.299Z,6624.00
2018-12-21T10:39:08.268Z,6528.00
2018-12-21T10:40:08.235Z,6432.00
2018-12-21T10:41:08.202Z,6380.00
2018-12-21T10:42:08.171Z,6324.00
2018-12-21T10:43:08.138Z,6256.00
2018-12-21T10:44:08.107Z,6216.00
2018-12-21T10:45:08.373Z,6252.00
2018-12-21T10:46:08.040Z,6380.00
2018-12-21T10:47:08.007Z,6528.00
2018-12-21T10:48:07.977Z,6760.00
2018-12-21T10:49:07.948Z,7012.00
2018-12-21T10:50:07.910Z,7240.00
2018-12-21T10:51:07.879Z,7284.00
2018-12-21T10:52:07.938Z,7028.00
2018-12-21T10:53:07.814Z,6632.00
2018-12-21T10:54:07.781Z,6344.00
2018-12-21T10:55:07.750Z,6292.00
2018-12-21T10:56:07.716Z,6472.00
2018-12-21T10:57:07.686Z,6724.00
2018-12-21T10:58:07.652Z,6888.00
2018-12-21T10:59:07.621Z,6988.00
2018-12-21T11:00:07.589Z,7124.00
2018-12-21T11:01:07.558Z,7448.00
2018-12-21T11:02:07.527Z,7952.00
2018-12-21T11:03:07.493Z,8464.00
2018-12-21T11:04:07.462Z,8796.00
2018-12-21T11:05:07.430Z,8928.00
2018-12-21T11:06:07.395Z,9036.00
2018-12-21T11:07:07.366Z,9156.00
2018-12-21T11:08:07.332Z,9080.00
2018-12-21T11:09:07.301Z,8672.00
2018-12-21T11:10:07.268Z,8000.00
2018-12-21T11:11:07.236Z,7180.00
2018-12-21T11:12:07.204Z,6340.00
2018-12-21T11:13:07.176Z,5596.00
2018-12-21T11:14:07.139Z,5020.00
2018-12-21T11:15:07.107Z,4640.00
2018-12-21T11:16:07.075Z,4416.00
2018-12-21T11:17:07.044Z,4304.00
2018-12-21T11:18:07.012Z,4264.00
2018-12-21T11:19:06.979Z,4252.00
2018-12-21T11:20:06.948Z,4204.00
2018-12-21T11:21:06.915Z,4148.00
2018-12-21T11:22:06.897Z,4096.00
2018-12-21T11:23:06.850Z,4016.00
2018-12-21T11:24:06.817Z,3904.00
2018-12-21T11:25:06.787Z,3752.00
2018-12-21T11:26:06.753Z,3604.00
2018-12-21T11:27:06.722Z,3520.00
2018-12-21T11:28:06.688Z,3516.00
2018-12-21T11:29:06.657Z,3568.00
2018-12-21T11:30:06.625Z,3628.00
2018-12-21T11:31:06.591Z,3664.00
2018-12-21T11:32:06.559Z,3728.00
2018-12-21T11:33:06.528Z,3840.00
2018-12-21T11:34:06.494Z,4012.00
2018-12-21T11:35:06.558Z,4200.00
2018-12-21T11:36:06.430Z,4340.00
2018-12-21T11:37:06.397Z,4396.00
2018-12-21T11:38:06.365Z,4416.00
2018-12-21T11:39:06.331Z,4376.00
2018-12-21T11:40:06.302Z,4368.00
2018-12-21T11:41:06.269Z,4372.00
2018-12-21T11:42:06.234Z,4380.00
2018-12-21T11:43:06.203Z,4376.00
2018-12-21T11:44:06.172Z,4416.00
2018-12-21T11:45:06.139Z,4332.00
2018-12-21T11:46:06.110Z,4284.00
2018-12-21T11:47:06.102Z,4192.00
2018-12-21T11:48:06.042Z,3984.00
2018-12-21T11:49:06.010Z,3684.00
2018-12-21T11:50:05.975Z,3312.00
2018-12-21T11:51:05.943Z,2968.00
2018-12-21T11:52:05.910Z,2856.00
2018-12-21T11:53:05.881Z,2896.00
2018-12-21T11:54:05.845Z,2884.00
2018-12-21T11:55:05.818Z,2880.00
2018-12-21T11:56:05.781Z,2788.00
2018-12-21T11:57:05.754Z,2628.00
2018-12-21T11:58:05.714Z,2480.00
2018-12-21T11:59:05.683Z,2396.00
2018-12-21T12:00:05.649Z,2296.00
2018-12-21T12:01:05.620Z,2216.00
2018-12-21T12:02:05.884Z,2152.00
2018-12-21T12:03:05.556Z,2156.00
2018-12-21T12:04:05.522Z,2188.00
2018-12-21T12:05:05.487Z,2176.00
2018-12-21T12:06:05.453Z,2208.00
2018-12-21T12:07:05.421Z,2360.00
2018-12-21T12:08:05.388Z,2428.00
2018-12-21T12:09:06.285Z,2428.00
2018-12-21T12:10:05.323Z,2484.00
2018-12-21T12:11:05.291Z,2676.00
2018-12-21T12:12:05.395Z,2876.00
2018-12-21T12:13:05.225Z,3116.00
2018-12-21T12:14:05.196Z,3400.00
2018-12-21T12:15:05.162Z,3732.00
2018-12-21T12:16:05.127Z,4276.00
2018-12-21T12:17:05.096Z,4456.00
2018-12-21T12:18:05.061Z,4432.00
2018-12-21T12:19:05.030Z,4256.00
2018-12-21T12:20:04.995Z,4000.00
2018-12-21T12:21:04.966Z,3880.00
2018-12-21T12:22:04.930Z,3692.00
2018-12-21T12:23:04.898Z,3544.00
2018-12-21T12:24:04.865Z,3480.00
2018-12-21T12:25:04.835Z,3512.00
2018-12-21T12:26:04.799Z,3752.00
2018-12-21T12:27:04.766Z,4372.00
2018-12-21T12:28:04.733Z,4624.00
2018-12-21T12:29:04.702Z,4932.00
2018-12-21T12:30:04.667Z,5204.00
2018-12-21T12:31:04.633Z,5528.00
2018-12-21T12:32:04.601Z,5208.00
2018-12-21T12:33:04.571Z,4728.00
2018-12-21T12:34:04.536Z,4244.00
2018-12-21T12:35:04.504Z,4028.00
2018-12-21T12:36:04.472Z,3844.00
2018-12-21T12:37:04.439Z,3600.00
2018-12-21T12:38:04.411Z,3560.00
2018-12-21T12:39:04.372Z,3556.00
2018-12-21T12:40:04.340Z,3628.00
2018-12-21T12:41:06.785Z,3840.00
2018-12-21T12:42:04.276Z,3976.00
2018-12-21T12:43:04.241Z,4104.00
2018-12-21T12:44:04.209Z,4224.00
2018-12-21T12:45:04.175Z,4016.00
2018-12-21T12:46:04.142Z,3908.00